Time;durP1;ratioP1;P1;durP2;ratioP2;P2;SDS_P1;SDS_P2;PMS_P1;PMS_P2;Temp;Humidity;BMP_temperature;BMP_pressure;BME280_temperature;BME280_humidity;BME280_pressure;Samples;Min_cycle;Max_cycle;Signal;HPM_P1;HPM_P2
2023/11/22 00:07:12;;;;;;;13.30;7.70;;;6.30;99.90;;;;;;20661280;28;20168;-48
2023/11/22 00:17:12;;;;;;;16.80;7.95;;;6.20;99.90;;;;;;20734483;28;20221;-48
2023/11/22 00:27:15;;;;;;;14.52;8.38;;;6.20;99.90;;;;;;20690672;28;20037;-47
2023/11/22 00:37:16;;;;;;;14.15;7.95;;;6.20;99.90;;;;;;20678838;28;20076;-47
2023/11/22 00:47:16;;;;;;;14.33;8.43;;;6.10;99.90;;;;;;20663632;28;20487;-48
2023/11/22 00:57:17;;;;;;;13.90;8.30;;;6.10;99.90;;;;;;20739617;28;20464;-48
2023/11/22 01:07:17;;;;;;;14.57;8.35;;;6.10;99.90;;;;;;20760232;28;21967;-48
2023/11/22 01:17:18;;;;;;;15.00;8.32;;;6.00;99.90;;;;;;20766381;28;20112;-48
2023/11/22 01:27:18;;;;;;;15.63;9.07;;;6.10;99.90;;;;;;20724433;28;20092;-48
2023/11/22 01:37:19;;;;;;;16.55;8.68;;;6.10;99.90;;;;;;20698150;28;20034;-47
2023/11/22 01:47:20;;;;;;;19.15;9.73;;;6.10;99.90;;;;;;20700656;28;20034;-47
2023/11/22 01:57:21;;;;;;;15.75;8.80;;;5.90;99.90;;;;;;20716799;28;20044;-48
2023/11/22 02:07:22;;;;;;;21.55;10.90;;;5.80;99.90;;;;;;20725033;28;20137;-48
2023/11/22 02:17:22;;;;;;;19.10;9.88;;;5.70;99.90;;;;;;20746284;28;20116;-47
2023/11/22 02:27:23;;;;;;;19.30;9.65;;;5.60;99.90;;;;;;20770301;28;20034;-47
2023/11/22 02:37:24;;;;;;;18.20;9.63;;;5.40;99.90;;;;;;20679123;28;20038;-47
2023/11/22 02:47:25;;;;;;;17.63;9.27;;;5.30;99.90;;;;;;20732326;28;20174;-47
2023/11/22 02:57:26;;;;;;;17.33;9.50;;;5.10;99.90;;;;;;20711037;28;20124;-47
2023/11/22 03:07:26;;;;;;;17.73;9.43;;;5.00;99.90;;;;;;20698478;28;20452;-48
2023/11/22 03:17:28;;;;;;;17.60;8.93;;;5.00;99.90;;;;;;20712674;28;20049;-48
2023/11/22 03:27:29;;;;;;;17.77;9.45;;;4.90;99.90;;;;;;20678925;28;20461;-47
2023/11/22 03:37:29;;;;;;;17.52;9.82;;;4.90;99.90;;;;;;20679026;28;20054;-48
2023/11/22 03:47:31;;;;;;;20.10;10.05;;;4.90;99.90;;;;;;20746920;28;20042;-47
2023/11/22 03:57:32;;;;;;;22.45;10.73;;;4.90;99.90;;;;;;20685231;28;20048;-48
2023/11/22 04:07:33;;;;;;;19.08;10.35;;;5.00;99.90;;;;;;20659683;28;20045;-48
2023/11/22 04:17:34;;;;;;;22.05;10.43;;;5.00;99.90;;;;;;20713213;28;20052;-48
2023/11/22 04:27:34;;;;;;;19.48;10.00;;;5.00;99.90;;;;;;20756268;28;20041;-47
2023/11/22 04:37:36;;;;;;;19.52;9.80;;;4.90;99.90;;;;;;20741334;28;20046;-47
2023/11/22 04:47:36;;;;;;;20.50;10.27;;;4.90;99.90;;;;;;20685936;28;20145;-47
2023/11/22 04:57:37;;;;;;;23.27;12.02;;;4.90;99.90;;;;;;20699825;28;20038;-47
2023/11/22 05:07:37;;;;;;;21.02;11.18;;;4.90;99.90;;;;;;20694396;28;20451;-48
2023/11/22 05:17:38;;;;;;;23.02;12.10;;;4.90;99.90;;;;;;20709168;28;20443;-48
2023/11/22 05:27:39;;;;;;;23.95;12.32;;;5.00;99.90;;;;;;20730274;28;20575;-47
2023/11/22 05:37:39;;;;;;;21.98;11.38;;;5.00;99.90;;;;;;20761146;28;20526;-47
2023/11/22 05:47:40;;;;;;;23.58;11.18;;;4.90;99.90;;;;;;20700583;28;20050;-48
2023/11/22 05:57:41;;;;;;;22.23;11.55;;;4.90;99.90;;;;;;20740871;28;20439;-47
2023/11/22 06:07:42;;;;;;;24.98;11.45;;;4.90;99.90;;;;;;20784986;28;20350;-47
2023/11/22 06:17:42;;;;;;;24.70;11.77;;;4.90;99.90;;;;;;20760651;28;20041;-47
2023/11/22 06:27:43;;;;;;;26.40;11.70;;;4.90;99.90;;;;;;20780453;28;20487;-47
2023/11/22 06:37:44;;;;;;;26.17;12.48;;;4.90;99.90;;;;;;20775146;28;20428;-47
2023/11/22 06:47:44;;;;;;;25.50;12.20;;;4.90;99.90;;;;;;20778356;28;20072;-48
2023/11/22 06:57:45;;;;;;;27.07;13.30;;;4.80;99.90;;;;;;20770149;28;20039;-47
2023/11/22 07:07:48;;;;;;;25.40;11.45;;;5.00;99.90;;;;;;20770378;28;20594;-47
2023/11/22 07:17:48;;;;;;;27.05;12.80;;;5.00;99.90;;;;;;20755739;28;20410;-48
2023/11/22 07:27:49;;;;;;;27.27;13.55;;;5.00;99.90;;;;;;20778256;28;20399;-48
2023/11/22 07:37:51;;;;;;;28.40;12.88;;;5.10;99.90;;;;;;20769782;28;21121;-47
2023/11/22 07:47:53;;;;;;;25.13;12.70;;;5.10;99.90;;;;;;20738217;28;20041;-47
2023/11/22 07:57:55;;;;;;;24.25;12.30;;;5.10;99.90;;;;;;20770815;28;20068;-47
2023/11/22 08:07:57;;;;;;;27.55;12.70;;;5.10;99.50;;;;;;20775011;28;20048;-47
2023/11/22 08:18:00;;;;;;;24.60;12.13;;;5.20;94.80;;;;;;20767871;28;20041;-47
2023/11/22 08:28:01;;;;;;;24.48;12.57;;;5.10;93.40;;;;;;20775779;28;20051;-48
2023/11/22 08:38:03;;;;;;;23.75;12.75;;;5.10;92.90;;;;;;20769072;28;20056;-47
2023/11/22 08:48:04;;;;;;;26.13;13.18;;;5.30;97.30;;;;;;20767314;28;20060;-48
2023/11/22 08:58:05;;;;;;;26.63;13.75;;;5.50;94.30;;;;;;20766670;28;20037;-47
2023/11/22 09:08:06;;;;;;;26.15;13.25;;;5.50;85.80;;;;;;20724250;28;20045;-47
2023/11/22 09:18:08;;;;;;;27.45;14.13;;;5.60;60.00;;;;;;20770666;28;20192;-47
2023/11/22 09:28:09;;;;;;;25.98;13.63;;;5.60;60.90;;;;;;20773593;28;20033;-47
2023/11/22 09:38:11;;;;;;;28.20;14.20;;;5.80;71.50;;;;;;20782341;28;20056;-47
2023/11/22 09:48:12;;;;;;;26.90;13.82;;;5.80;70.20;;;;;;20786638;28;20368;-47
2023/11/22 09:58:13;;;;;;;28.10;13.35;;;5.90;61.80;;;;;;20783711;28;20140;-47
2023/11/22 10:08:14;;;;;;;25.75;13.70;;;6.00;50.90;;;;;;20777687;28;20557;-48
2023/11/22 10:18:17;;;;;;;25.67;14.80;;;6.10;51.90;;;;;;20790515;28;20511;-47
2023/11/22 10:28:23;;;;;;;25.27;13.75;;;6.20;44.10;;;;;;20785770;28;20042;-47
2023/11/22 10:38:25;;;;;;;28.47;15.57;;;6.20;45.30;;;;;;20788644;28;20529;-47
2023/11/22 10:48:26;;;;;;;28.13;15.48;;;6.40;55.10;;;;;;20780618;28;20044;-47
2023/11/22 10:58:32;;;;;;;26.10;14.53;;;6.70;65.10;;;;;;20788660;28;20049;-47
2023/11/22 11:08:36;;;;;;;27.38;14.52;;;7.00;36.70;;;;;;20793007;28;20126;-47
2023/11/22 11:18:37;;;;;;;24.10;13.98;;;7.10;32.30;;;;;;20786646;28;20510;-47
2023/11/22 11:28:47;;;;;;;27.20;14.77;;;7.10;19.30;;;;;;20781622;28;20462;-47
2023/11/22 11:38:49;;;;;;;29.10;15.10;;;7.10;19.70;;;;;;20781816;28;20041;-47
2023/11/22 11:48:51;;;;;;;27.73;14.80;;;7.00;20.40;;;;;;20784119;28;20065;-47
2023/11/22 11:58:57;;;;;;;25.42;14.10;;;7.20;21.90;;;;;;20776024;28;20084;-47
2023/11/22 12:08:58;;;;;;;23.25;14.27;;;7.40;12.40;;;;;;20774934;28;20418;-47
2023/11/22 12:18:58;;;;;;;26.13;13.98;;;7.30;16.70;;;;;;20773945;28;20049;-47
2023/11/22 12:28:59;;;;;;;25.90;13.57;;;7.70;10.00;;;;;;20776835;28;20041;-47
2023/11/22 12:38:59;;;;;;;27.52;14.82;;;8.00;3.60;;;;;;20774605;28;20045;-47
2023/11/22 12:49:06;;;;;;;25.15;15.07;;;8.20;3.00;;;;;;20776528;28;20474;-47
2023/11/22 12:59:08;;;;;;;23.95;14.73;;;8.20;1.00;;;;;;20781091;28;20037;-47
2023/11/22 13:09:14;;;;;;;26.83;16.30;;;7.80;1.00;;;;;;20776107;28;20106;-47
2023/11/22 13:19:14;;;;;;;28.60;16.20;;;7.50;2.40;;;;;;20790402;28;20132;-47
2023/11/22 13:29:15;;;;;;;29.00;17.05;;;7.50;8.70;;;;;;20792957;28;20094;-47
2023/11/22 13:39:16;;;;;;;30.45;17.30;;;7.40;17.50;;;;;;20788368;28;20188;-48
2023/11/22 13:49:17;;;;;;;26.63;15.40;;;7.30;19.30;;;;;;20785225;28;20124;-47
2023/11/22 13:59:17;;;;;;;26.77;14.93;;;7.40;19.00;;;;;;20781658;28;20056;-47
2023/11/22 14:09:19;;;;;;;28.98;15.48;;;7.20;29.30;;;;;;20750401;28;20041;-48
2023/11/22 14:19:20;;;;;;;29.48;15.57;;;7.20;35.10;;;;;;20709473;28;20136;-47
2023/11/22 14:29:20;;;;;;;24.13;14.25;;;7.10;36.10;;;;;;20695829;28;20041;-47
2023/11/22 14:39:21;;;;;;;24.92;13.65;;;7.00;38.50;;;;;;20694744;28;20057;-47
2023/11/22 14:49:21;;;;;;;27.20;14.55;;;7.00;49.60;;;;;;20719277;28;20471;-47
2023/11/22 14:59:22;;;;;;;27.45;15.02;;;6.90;55.20;;;;;;20695593;28;20140;-47
2023/11/22 15:09:23;;;;;;;30.38;16.95;;;6.90;60.30;;;;;;20706727;28;20045;-47
2023/11/22 15:19:27;;;;;;;34.25;18.60;;;6.90;52.70;;;;;;20752382;28;20049;-47
2023/11/22 15:29:28;;;;;;;46.10;20.75;;;6.80;69.70;;;;;;20700359;28;20164;-47
2023/11/22 15:39:28;;;;;;;48.27;23.13;;;6.70;85.50;;;;;;20704827;28;20294;-47
2023/11/22 15:49:29;;;;;;;49.05;24.25;;;6.70;84.20;;;;;;20698864;28;20459;-47
2023/11/22 15:59:29;;;;;;;49.95;24.00;;;6.60;91.30;;;;;;20762193;28;20041;-47
2023/11/22 16:09:30;;;;;;;45.75;22.05;;;6.50;92.90;;;;;;20775321;28;20052;-47
2023/11/22 16:19:30;;;;;;;47.47;22.73;;;6.60;90.30;;;;;;20760514;28;20037;-47
2023/11/22 16:29:31;;;;;;;41.97;21.87;;;6.50;93.70;;;;;;20705211;28;20038;-47
2023/11/22 16:39:32;;;;;;;48.88;22.30;;;6.40;93.50;;;;;;20703397;28;20500;-50
2023/11/22 16:49:35;;;;;;;45.10;22.45;;;6.50;86.70;;;;;;20716898;28;20188;-47
2023/11/22 16:59:35;;;;;;;47.20;21.20;;;6.50;88.30;;;;;;20756255;28;20128;-48
2023/11/22 17:09:36;;;;;;;41.80;21.10;;;6.60;73.20;;;;;;20779824;28;20513;-47
2023/11/22 17:19:37;;;;;;;43.08;20.17;;;6.60;73.90;;;;;;20772481;28;20045;-47
2023/11/22 17:29:38;;;;;;;40.00;20.17;;;6.70;66.70;;;;;;20766554;28;20072;-47
2023/11/22 17:39:38;;;;;;;37.33;19.38;;;6.60;71.30;;;;;;20761266;28;20037;-48
2023/11/22 17:49:39;;;;;;;39.47;19.58;;;6.70;73.90;;;;;;20757670;28;20443;-48
2023/11/22 17:59:40;;;;;;;40.22;20.20;;;6.70;68.50;;;;;;20730405;28;20041;-47
2023/11/22 18:09:40;;;;;;;36.88;19.38;;;6.70;61.60;;;;;;20753268;28;20133;-47
2023/11/22 18:19:41;;;;;;;37.72;18.60;;;6.90;60.30;;;;;;20743800;28;20439;-48
2023/11/22 18:29:41;;;;;;;34.33;18.60;;;6.90;48.20;;;;;;20771411;28;20048;-47
2023/11/22 18:39:42;;;;;;;37.20;18.35;;;6.90;49.60;;;;;;20774524;28;20560;-47
2023/11/22 18:49:43;;;;;;;35.17;18.63;;;6.90;51.50;;;;;;20720694;28;20046;-48
2023/11/22 18:59:46;;;;;;;32.97;17.30;;;7.00;67.90;;;;;;20678444;28;22115;-47
2023/11/22 19:09:47;;;;;;;39.08;18.17;;;7.00;61.60;;;;;;20671459;28;20524;-47
2023/11/22 19:19:48;;;;;;;33.75;16.67;;;7.30;49.90;;;;;;20678306;28;20042;-47
2023/11/22 19:29:49;;;;;;;32.15;16.40;;;7.40;52.20;;;;;;20682409;28;20041;-47
2023/11/22 19:39:50;;;;;;;33.40;16.35;;;7.50;47.00;;;;;;20682674;28;20042;-48
2023/11/22 19:49:50;;;;;;;29.35;15.82;;;7.70;45.80;;;;;;20682693;28;20064;-48
2023/11/22 19:59:51;;;;;;;30.85;16.20;;;7.80;42.10;;;;;;20687375;28;20512;-48
2023/11/22 20:09:52;;;;;;;28.73;15.73;;;7.80;39.60;;;;;;20682864;28;20038;-47
2023/11/22 20:19:54;;;;;;;29.70;15.23;;;7.90;47.00;;;;;;20679960;28;20042;-48
2023/11/22 20:29:55;;;;;;;29.67;15.60;;;7.90;70.90;;;;;;20684325;28;20053;-47
2023/11/22 20:39:56;;;;;;;29.73;15.10;;;8.00;97.20;;;;;;20687891;28;20088;-47
2023/11/22 20:49:57;;;;;;;34.38;16.55;;;7.90;99.90;;;;;;20685319;28;20045;-47
2023/11/22 20:59:57;;;;;;;27.73;15.43;;;8.00;99.90;;;;;;20717602;28;20041;-47
2023/11/22 21:09:59;;;;;;;29.17;16.35;;;7.80;99.90;;;;;;20686651;28;20165;-48
2023/11/22 21:20:00;;;;;;;32.97;16.75;;;8.00;99.90;;;;;;20682556;28;20073;-47
2023/11/22 21:30:00;;;;;;;28.80;15.90;;;8.10;99.90;;;;;;20684983;28;21310;-48
2023/11/22 21:40:05;;;;;;;28.83;15.43;;;8.10;99.90;;;;;;20700468;28;20523;-47
2023/11/22 21:50:06;;;;;;;28.70;16.75;;;8.20;99.90;;;;;;20698935;28;20060;-47
2023/11/22 22:00:10;;;;;;;28.98;16.52;;;8.40;99.90;;;;;;20756428;28;20050;-47
2023/11/22 22:10:11;;;;;;;30.10;16.60;;;8.50;99.90;;;;;;20693200;28;20475;-47
2023/11/22 22:20:12;;;;;;;29.77;16.15;;;8.50;99.90;;;;;;20704802;28;20042;-47
2023/11/22 22:30:12;;;;;;;30.88;16.98;;;8.70;99.90;;;;;;20740436;28;20088;-48
2023/11/22 22:40:13;;;;;;;26.15;16.15;;;8.80;99.90;;;;;;20679269;28;20407;-47
2023/11/22 22:50:14;;;;;;;29.85;16.88;;;8.70;99.90;;;;;;20718663;28;20045;-47
2023/11/22 23:00:27;;;;;;;30.40;17.48;;;8.80;99.90;;;;;;20781682;28;20041;-48
2023/11/22 23:10:28;;;;;;;33.05;16.98;;;8.80;99.90;;;;;;20743135;28;20446;-47
2023/11/22 23:20:28;;;;;;;33.42;17.15;;;8.80;99.90;;;;;;20696199;28;20096;-48
2023/11/22 23:30:29;;;;;;;34.78;17.90;;;9.00;99.90;;;;;;20695859;28;20061;-48
2023/11/22 23:40:29;;;;;;;32.60;17.20;;;9.00;99.90;;;;;;20687656;28;20363;-48
2023/11/22 23:50:30;;;;;;;33.88;18.20;;;9.10;99.90;;;;;;20706643;28;20045;-47
